createdAt,value
2019-05-11T00:02:24.785Z,7.00
2019-05-11T00:04:52.329Z,7.10
2019-05-11T00:07:19.882Z,7.00
2019-05-11T00:09:57.612Z,7.00
2019-05-11T00:12:17.663Z,6.90
2019-05-11T00:14:45.210Z,6.90
2019-05-11T00:17:12.546Z,6.90
2019-05-11T00:19:40.097Z,6.90
2019-05-11T00:22:07.530Z,6.90
2019-05-11T00:24:35.058Z,6.80
2019-05-11T00:27:02.410Z,6.80
2019-05-11T00:29:30.151Z,6.80
2019-05-11T00:31:57.743Z,6.80
2019-05-11T00:34:26.494Z,6.80
2019-05-11T00:36:54.059Z,6.70
2019-05-11T00:39:21.587Z,6.70
2019-05-11T00:41:49.312Z,6.60
2019-05-11T00:44:16.726Z,6.60
2019-05-11T00:46:44.256Z,6.60
2019-05-11T00:49:13.405Z,6.60
2019-05-11T00:51:41.512Z,6.60
2019-05-11T00:54:09.102Z,6.60
2019-05-11T00:56:36.586Z,6.50
2019-05-11T00:59:04.183Z,6.50
2019-05-11T01:01:33.305Z,6.50
2019-05-11T01:04:00.821Z,6.50
2019-05-11T01:06:28.909Z,6.50
2019-05-11T01:08:56.298Z,6.50
2019-05-11T01:11:23.798Z,6.50
2019-05-11T01:13:51.203Z,6.50
2019-05-11T01:16:18.728Z,6.60
2019-05-11T01:18:46.213Z,6.60
2019-05-11T01:21:13.711Z,6.60
2019-05-11T01:23:41.321Z,6.60
2019-05-11T01:26:08.824Z,6.60
2019-05-11T01:28:36.190Z,6.60
2019-05-11T01:31:03.503Z,6.50
2019-05-11T01:33:31.126Z,6.50
2019-05-11T01:35:58.700Z,6.50
2019-05-11T01:38:26.238Z,6.50
2019-05-11T01:40:58.530Z,6.50
2019-05-11T01:43:24.266Z,6.50
2019-05-11T01:45:51.839Z,6.50
2019-05-11T01:48:19.435Z,6.50
2019-05-11T01:50:46.963Z,6.50
2019-05-11T01:53:14.450Z,6.40
2019-05-11T01:55:42.013Z,6.40
2019-05-11T01:58:09.472Z,6.40
2019-05-11T02:00:37.090Z,6.40
2019-05-11T02:03:04.485Z,6.40
2019-05-11T02:05:32.073Z,6.40
2019-05-11T02:08:01.090Z,6.40
2019-05-11T02:10:29.234Z,6.40
2019-05-11T02:12:57.267Z,6.40
2019-05-11T02:15:24.790Z,6.40
2019-05-11T02:17:52.342Z,6.40
2019-05-11T02:20:19.854Z,6.40
2019-05-11T02:22:47.360Z,6.40
2019-05-11T02:25:15.169Z,6.40
2019-05-11T02:27:42.710Z,6.40
2019-05-11T02:30:11.075Z,6.40
2019-05-11T02:32:39.528Z,6.50
2019-05-11T02:35:07.371Z,6.50
2019-05-11T02:37:34.941Z,6.50
2019-05-11T02:40:03.238Z,6.50
2019-05-11T02:42:30.584Z,6.50
2019-05-11T02:44:58.212Z,6.50
2019-05-11T02:47:25.624Z,6.50
2019-05-11T02:49:53.057Z,6.50
2019-05-11T02:52:20.900Z,6.50
2019-05-11T02:54:51.539Z,6.50
2019-05-11T02:57:19.011Z,6.50
2019-05-11T02:59:46.503Z,6.50
2019-05-11T03:02:13.945Z,6.50
2019-05-11T03:04:41.503Z,6.40
2019-05-11T03:07:08.989Z,6.40
2019-05-11T03:09:38.103Z,6.40
2019-05-11T03:12:05.652Z,6.40
2019-05-11T03:14:33.037Z,6.40
2019-05-11T03:17:13.429Z,6.30
2019-05-11T03:19:40.976Z,6.30
2019-05-11T03:22:08.557Z,6.30
2019-05-11T03:24:36.028Z,6.30
2019-05-11T03:27:03.580Z,6.30
2019-05-11T03:29:31.021Z,6.30
2019-05-11T03:31:58.734Z,6.30
2019-05-11T03:34:26.267Z,6.30
2019-05-11T03:36:53.784Z,6.30
2019-05-11T03:39:21.362Z,6.30
2019-05-11T03:41:51.305Z,6.20
2019-05-11T03:44:18.943Z,6.30
2019-05-11T03:46:46.423Z,6.30
2019-05-11T03:49:14.059Z,6.30
2019-05-11T03:51:41.594Z,6.30
2019-05-11T03:54:09.219Z,6.30
2019-05-11T03:56:36.798Z,6.30
2019-05-11T03:59:04.177Z,6.30
2019-05-11T04:01:34.042Z,6.30
2019-05-11T04:04:01.531Z,6.30
2019-05-11T04:06:29.236Z,6.40
2019-05-11T04:08:56.747Z,6.40
2019-05-11T04:11:24.298Z,6.40
2019-05-11T04:13:51.872Z,6.40
2019-05-11T04:16:19.417Z,6.50
2019-05-11T04:18:46.939Z,6.50
2019-05-11T04:21:14.801Z,6.50
2019-05-11T04:23:42.551Z,6.50
2019-05-11T04:26:10.160Z,6.50
2019-05-11T04:28:37.729Z,6.60
2019-05-11T04:31:05.432Z,6.60
2019-05-11T04:33:33.536Z,6.60
2019-05-11T04:36:01.134Z,6.70
2019-05-11T04:38:28.882Z,6.70
2019-05-11T04:40:56.623Z,6.80
2019-05-11T04:43:24.492Z,6.80
2019-05-11T04:45:52.614Z,6.80
2019-05-11T04:48:20.865Z,6.80
2019-05-11T04:50:50.457Z,6.80
2019-05-11T04:53:18.166Z,6.90
2019-05-11T04:55:45.767Z,6.90
2019-05-11T04:58:13.311Z,6.90
2019-05-11T05:00:40.890Z,7.00
2019-05-11T05:03:08.353Z,7.00
2019-05-11T05:05:35.798Z,7.00
2019-05-11T05:08:09.598Z,7.10
2019-05-11T05:10:34.486Z,7.10
2019-05-11T05:13:10.072Z,7.20
2019-05-11T05:15:31.398Z,7.20
2019-05-11T05:17:58.990Z,7.30
2019-05-11T05:20:26.503Z,7.40
2019-05-11T05:22:54.213Z,7.40
2019-05-11T05:25:21.863Z,7.50
2019-05-11T05:27:49.687Z,7.50
2019-05-11T05:30:17.309Z,7.60
2019-05-11T05:32:45.049Z,7.60
2019-05-11T05:35:12.925Z,7.70
2019-05-11T05:37:40.516Z,7.70
2019-05-11T05:40:08.948Z,7.80
2019-05-11T05:42:37.044Z,7.80
2019-05-11T05:45:05.239Z,7.80
2019-05-11T05:47:33.025Z,7.90
2019-05-11T05:50:00.581Z,7.90
2019-05-11T05:52:28.324Z,8.00
2019-05-11T05:54:55.812Z,8.10
2019-05-11T05:57:23.333Z,8.20
2019-05-11T05:59:50.791Z,8.20
2019-05-11T06:02:18.515Z,8.30
2019-05-11T06:04:46.097Z,8.40
2019-05-11T06:07:14.049Z,8.50
2019-05-11T06:09:41.681Z,8.60
2019-05-11T06:12:09.330Z,8.80
2019-05-11T06:14:36.992Z,8.90
2019-05-11T06:17:04.583Z,9.10
2019-05-11T06:19:32.135Z,9.40
2019-05-11T06:21:59.884Z,9.60
2019-05-11T06:24:27.550Z,9.80
2019-05-11T06:26:55.485Z,9.90
2019-05-11T06:29:23.085Z,10.10
2019-05-11T06:31:50.718Z,10.30
2019-05-11T06:34:18.397Z,10.50
2019-05-11T06:36:46.160Z,10.60
2019-05-11T06:39:13.714Z,10.60
2019-05-11T06:41:41.186Z,10.60
2019-05-11T06:44:10.042Z,10.60
2019-05-11T06:46:37.689Z,10.60
2019-05-11T06:49:05.223Z,10.60
2019-05-11T06:51:32.742Z,10.50
2019-05-11T06:54:00.334Z,10.50
2019-05-11T06:56:27.757Z,10.50
2019-05-11T06:58:55.215Z,10.50
2019-05-11T07:01:22.865Z,10.60
2019-05-11T07:03:50.325Z,10.60
2019-05-11T07:06:17.703Z,10.70
2019-05-11T07:08:46.375Z,10.70
2019-05-11T07:11:13.956Z,10.80
2019-05-11T07:13:41.550Z,10.90
2019-05-11T07:16:09.113Z,11.10
2019-05-11T07:18:36.667Z,11.30
2019-05-11T07:21:05.441Z,11.60
2019-05-11T07:23:33.023Z,11.80
2019-05-11T07:26:00.800Z,12.00
2019-05-11T07:28:28.354Z,12.20
2019-05-11T07:30:55.964Z,12.30
2019-05-11T07:33:23.630Z,12.40
2019-05-11T07:35:51.482Z,12.50
2019-05-11T07:38:18.991Z,12.70
2019-05-11T07:40:47.629Z,12.80
2019-05-11T07:43:15.581Z,12.90
2019-05-11T07:45:43.490Z,12.90
2019-05-11T07:48:11.243Z,13.00
2019-05-11T07:50:38.924Z,13.10
2019-05-11T07:53:08.176Z,13.20
2019-05-11T07:55:37.960Z,13.30
2019-05-11T07:58:07.870Z,13.50
2019-05-11T08:00:39.118Z,13.60
2019-05-11T08:03:05.821Z,13.70
2019-05-11T08:05:33.568Z,13.80
2019-05-11T08:08:01.333Z,13.90
2019-05-11T08:10:29.277Z,14.00
2019-05-11T08:12:58.856Z,14.10
2019-05-11T08:15:28.393Z,14.20
2019-05-11T08:17:57.820Z,14.30
2019-05-11T08:20:25.205Z,14.40
2019-05-11T08:22:52.727Z,14.50
2019-05-11T08:25:20.543Z,14.60
2019-05-11T08:27:48.918Z,14.70
2019-05-11T08:30:18.763Z,14.70
2019-05-11T08:32:46.126Z,14.70
2019-05-11T08:35:14.002Z,14.70
2019-05-11T08:38:00.927Z,14.70
2019-05-11T08:40:28.998Z,14.70
2019-05-11T08:42:58.254Z,14.70
2019-05-11T08:45:27.962Z,14.70
2019-05-11T08:47:57.750Z,14.70
2019-05-11T08:50:24.881Z,14.70
2019-05-11T08:52:52.585Z,14.60
2019-05-11T08:55:20.117Z,14.70
2019-05-11T08:57:49.502Z,14.70
2019-05-11T09:00:18.589Z,14.70
2019-05-11T09:02:49.601Z,14.90
2019-05-11T09:05:18.489Z,15.00
2019-05-11T09:07:45.065Z,15.10
2019-05-11T09:10:13.010Z,15.20
2019-05-11T09:12:40.337Z,15.20
2019-05-11T09:15:08.753Z,15.20
2019-05-11T09:17:38.150Z,15.30
2019-05-11T09:20:08.532Z,15.30
2019-05-11T09:22:37.954Z,15.30
2019-05-11T09:25:05.000Z,15.50
2019-05-11T09:27:32.499Z,15.60
2019-05-11T09:29:59.875Z,15.80
2019-05-11T09:32:28.521Z,15.90
2019-05-11T09:34:58.011Z,16.00
2019-05-11T09:37:27.574Z,16.00
2019-05-11T09:39:54.708Z,16.10
2019-05-11T09:42:22.219Z,16.10
2019-05-11T09:44:50.069Z,16.10
2019-05-11T09:47:18.952Z,16.30
2019-05-11T09:49:50.118Z,16.40
2019-05-11T09:52:18.198Z,16.40
2019-05-11T09:54:45.448Z,16.50
2019-05-11T09:57:12.933Z,16.50
2019-05-11T09:59:40.795Z,16.40
2019-05-11T10:02:08.290Z,16.20
2019-05-11T10:04:37.844Z,16.10
2019-05-11T10:07:05.013Z,16.00
2019-05-11T10:09:32.327Z,15.90
2019-05-11T10:11:59.659Z,15.90
2019-05-11T10:14:28.883Z,15.90
2019-05-11T10:16:58.438Z,16.10
2019-05-11T10:19:28.233Z,16.30
2019-05-11T10:21:57.858Z,16.50
2019-05-11T10:24:24.837Z,16.60
2019-05-11T10:26:53.919Z,16.70
2019-05-11T10:29:21.442Z,16.70
2019-05-11T10:31:50.217Z,16.80
2019-05-11T10:34:18.146Z,16.80
2019-05-11T10:36:45.763Z,16.80
2019-05-11T10:39:13.207Z,16.80
2019-05-11T10:41:41.264Z,16.80
2019-05-11T10:44:08.770Z,16.80
2019-05-11T10:46:38.053Z,16.80
2019-05-11T10:49:07.819Z,16.90
2019-05-11T10:51:35.016Z,17.20
2019-05-11T10:54:02.472Z,17.40
2019-05-11T10:56:29.915Z,17.50
2019-05-11T10:58:58.620Z,17.60
2019-05-11T11:01:28.402Z,17.60
2019-05-11T11:03:55.660Z,17.70
2019-05-11T11:06:22.994Z,17.80
2019-05-11T11:08:50.593Z,17.70
2019-05-11T11:11:18.617Z,17.70
2019-05-11T11:13:48.012Z,17.60
2019-05-11T11:16:15.611Z,17.40
2019-05-11T11:18:43.221Z,17.40
2019-05-11T11:21:10.705Z,17.40
2019-05-11T11:23:38.488Z,17.50
2019-05-11T11:26:08.266Z,17.60
2019-05-11T11:28:35.657Z,17.60
2019-05-11T11:31:03.015Z,17.70
2019-05-11T11:33:30.460Z,17.70
2019-05-11T11:35:58.101Z,17.60
2019-05-11T11:38:25.530Z,17.50
2019-05-11T11:40:53.067Z,17.50
2019-05-11T11:43:20.507Z,17.60
2019-05-11T11:45:50.345Z,17.60
2019-05-11T11:48:18.897Z,17.70
2019-05-11T11:50:48.087Z,17.80
2019-05-11T11:53:15.779Z,17.90
2019-05-11T11:55:43.291Z,17.80
2019-05-11T11:58:10.925Z,17.80
2019-05-11T12:00:39.118Z,17.70
2019-05-11T12:03:08.027Z,17.60
2019-05-11T12:05:38.635Z,17.60
2019-05-11T12:08:08.621Z,17.60
2019-05-11T12:10:37.981Z,17.60
2019-05-11T12:13:05.586Z,17.60
2019-05-11T12:15:33.069Z,17.50
2019-05-11T12:18:00.539Z,17.60
2019-05-11T12:20:28.778Z,17.60
2019-05-11T12:22:58.161Z,17.70
2019-05-11T12:25:27.602Z,17.70
2019-05-11T12:27:54.856Z,17.80
2019-05-11T12:30:22.617Z,17.80
2019-05-11T12:32:50.141Z,17.70
2019-05-11T12:35:18.298Z,17.80
2019-05-11T12:37:48.263Z,17.80
2019-05-11T12:40:18.007Z,17.80
2019-05-11T12:42:45.547Z,17.80
2019-05-11T12:45:13.198Z,17.70
2019-05-11T12:47:41.951Z,17.80
2019-05-11T12:50:10.979Z,17.70
2019-05-11T12:52:38.486Z,17.70
2019-05-11T12:55:08.521Z,17.80
2019-05-11T12:57:35.765Z,17.80
2019-05-11T13:00:03.688Z,17.80
2019-05-11T13:02:31.402Z,17.80
2019-05-11T13:04:58.807Z,17.70
2019-05-11T13:07:28.940Z,17.70
2019-05-11T13:09:57.972Z,17.70
2019-05-11T13:12:27.802Z,17.80
2019-05-11T13:14:55.005Z,17.80
2019-05-11T13:17:34.152Z,17.80
2019-05-11T13:19:52.883Z,17.80
2019-05-11T13:22:20.434Z,17.70
2019-05-11T13:24:48.482Z,17.60
2019-05-11T13:27:17.864Z,17.40
2019-05-11T13:29:45.139Z,17.40
2019-05-11T13:32:12.842Z,17.40
2019-05-11T13:34:40.632Z,17.40
2019-05-11T13:37:08.262Z,17.40
2019-05-11T13:39:37.782Z,17.20
2019-05-11T13:42:08.071Z,17.00
2019-05-11T13:44:35.612Z,16.90
2019-05-11T13:47:03.175Z,16.90
2019-05-11T13:49:32.571Z,16.90
2019-05-11T13:52:00.448Z,16.90
2019-05-11T13:54:29.822Z,16.90
2019-05-11T13:56:57.756Z,17.00
2019-05-11T13:59:25.405Z,17.00
2019-05-11T14:01:52.864Z,17.00
2019-05-11T14:04:20.372Z,17.10
2019-05-11T14:06:48.850Z,17.10
2019-05-11T14:09:18.434Z,17.00
2019-05-11T14:11:47.482Z,16.90
2019-05-11T14:14:15.268Z,16.90
2019-05-11T14:16:51.242Z,16.80
2019-05-11T14:19:19.007Z,16.80
2019-05-11T14:21:48.772Z,16.70
2019-05-11T14:24:18.181Z,16.70
2019-05-11T14:26:45.081Z,16.70
2019-05-11T14:29:12.595Z,16.70
2019-05-11T14:31:41.106Z,16.60
2019-05-11T14:34:09.114Z,16.70
2019-05-11T14:36:38.772Z,16.60
2019-05-11T14:39:08.468Z,16.60
2019-05-11T14:41:38.088Z,16.50
2019-05-11T14:44:05.372Z,16.50
2019-05-11T14:46:33.020Z,16.50
2019-05-11T14:49:00.484Z,16.40
2019-05-11T14:51:28.321Z,16.40
2019-05-11T14:53:57.358Z,16.30
2019-05-11T14:56:27.795Z,16.20
2019-05-11T14:58:55.085Z,16.20
2019-05-11T15:01:22.702Z,16.20
2019-05-11T15:03:50.233Z,16.10
2019-05-11T15:06:18.784Z,16.10
2019-05-11T15:08:47.831Z,16.10
2019-05-11T15:11:15.815Z,16.00
2019-05-11T15:13:43.497Z,16.10
2019-05-11T15:16:11.090Z,16.00
2019-05-11T15:18:41.895Z,16.00
2019-05-11T15:21:08.430Z,16.00
2019-05-11T15:23:37.815Z,16.00
2019-05-11T15:26:07.150Z,16.00
2019-05-11T15:28:34.333Z,16.00
2019-05-11T15:31:01.829Z,16.00
2019-05-11T15:33:29.205Z,15.90
2019-05-11T15:35:58.306Z,15.90
2019-05-11T15:38:28.268Z,15.80
2019-05-11T15:40:57.930Z,15.80
2019-05-11T15:43:25.527Z,15.80
2019-05-11T15:45:52.995Z,15.80
2019-05-11T15:48:20.616Z,15.80
2019-05-11T15:50:48.821Z,15.70
2019-05-11T15:53:17.886Z,15.70
2019-05-11T15:55:46.637Z,15.70
2019-05-11T15:58:14.229Z,15.70
2019-05-11T16:00:41.675Z,15.70
2019-05-11T16:03:09.133Z,15.60
2019-05-11T16:05:36.594Z,15.70
2019-05-11T16:08:04.155Z,15.80
2019-05-11T16:10:31.646Z,16.30
2019-05-11T16:12:59.177Z,16.80
2019-05-11T16:15:27.721Z,17.70
2019-05-11T16:17:57.669Z,18.70
2019-05-11T16:20:24.694Z,19.40
2019-05-11T16:22:53.007Z,18.90
2019-05-11T16:25:20.598Z,18.40
2019-05-11T16:27:48.670Z,18.40
2019-05-11T16:30:20.790Z,19.90
2019-05-11T16:32:48.064Z,21.90
2019-05-11T16:35:17.773Z,23.20
2019-05-11T16:37:48.699Z,24.40
2019-05-11T16:40:20.931Z,25.40
2019-05-11T16:42:49.285Z,25.90
2019-05-11T16:45:18.923Z,25.00
2019-05-11T16:47:48.312Z,23.50
2019-05-11T16:50:18.073Z,22.30
2019-05-11T16:52:47.901Z,21.50
2019-05-11T16:55:15.127Z,22.40
2019-05-11T16:57:48.421Z,24.20
2019-05-11T17:00:15.187Z,25.90
2019-05-11T17:02:42.541Z,27.10
2019-05-11T17:05:25.389Z,28.20
2019-05-11T17:07:40.573Z,29.10
2019-05-11T17:10:11.397Z,29.60
2019-05-11T17:12:38.921Z,30.10
2019-05-11T17:15:08.930Z,30.40
2019-05-11T17:17:36.377Z,30.40
2019-05-11T17:20:04.100Z,30.50
2019-05-11T17:22:31.975Z,30.60
2019-05-11T17:24:59.420Z,30.90
2019-05-11T17:27:28.550Z,31.40
2019-05-11T17:29:56.055Z,31.80
2019-05-11T17:32:23.561Z,32.10
2019-05-11T17:34:51.242Z,32.30
2019-05-11T17:37:18.866Z,32.30
2019-05-11T17:39:47.954Z,32.40
2019-05-11T17:42:18.034Z,32.50
2019-05-11T17:44:45.065Z,32.40
2019-05-11T17:47:12.784Z,32.40
2019-05-11T17:49:40.139Z,32.30
2019-05-11T17:52:08.150Z,32.20
2019-05-11T17:54:35.691Z,31.50
2019-05-11T17:57:03.224Z,29.70
2019-05-11T17:59:30.694Z,29.40
2019-05-11T18:01:58.178Z,29.30
2019-05-11T18:04:26.037Z,28.60
2019-05-11T18:06:53.659Z,26.80
2019-05-11T18:09:22.329Z,25.00
2019-05-11T18:11:50.020Z,23.50
2019-05-11T18:14:17.550Z,22.10
2019-05-11T18:16:44.826Z,21.00
2019-05-11T18:19:12.197Z,19.90
2019-05-11T18:21:39.570Z,19.10
2019-05-11T18:24:09.189Z,18.40
2019-05-11T18:26:38.154Z,17.80
2019-05-11T18:29:05.879Z,17.20
2019-05-11T18:31:33.430Z,16.70
2019-05-11T18:34:01.007Z,16.20
2019-05-11T18:36:29.177Z,15.70
2019-05-11T18:38:56.802Z,15.30
2019-05-11T18:41:24.363Z,15.00
2019-05-11T18:43:51.839Z,14.70
2019-05-11T18:46:19.375Z,14.40
2019-05-11T18:48:48.627Z,14.10
2019-05-11T18:51:16.141Z,13.90
2019-05-11T18:53:44.643Z,13.70
2019-05-11T18:56:12.033Z,13.40
2019-05-11T18:58:39.389Z,13.20
2019-05-11T19:01:06.832Z,13.00
2019-05-11T19:03:34.308Z,12.80
2019-05-11T19:06:01.618Z,12.60
2019-05-11T19:08:29.056Z,12.40
2019-05-11T19:10:57.971Z,12.30
2019-05-11T19:13:27.918Z,12.10
2019-05-11T19:15:55.141Z,12.00
2019-05-11T19:18:22.709Z,11.80
2019-05-11T19:20:50.227Z,11.60
2019-05-11T19:23:19.155Z,11.50
2019-05-11T19:25:48.044Z,11.30
2019-05-11T19:28:15.811Z,11.20
2019-05-11T19:30:43.400Z,11.10
2019-05-11T19:33:11.164Z,11.00
2019-05-11T19:35:38.893Z,10.80
2019-05-11T19:38:08.479Z,10.70
2019-05-11T19:40:37.963Z,10.70
2019-05-11T19:43:05.022Z,10.60
2019-05-11T19:45:32.688Z,10.50
2019-05-11T19:48:00.138Z,10.40
2019-05-11T19:50:27.893Z,10.30
2019-05-11T19:52:57.743Z,10.20
2019-05-11T19:55:24.625Z,10.20
2019-05-11T19:57:52.030Z,10.10
2019-05-11T20:00:20.287Z,10.10
2019-05-11T20:02:47.698Z,10.00
2019-05-11T20:05:15.286Z,9.90
2019-05-11T20:07:48.185Z,9.90
2019-05-11T20:10:15.063Z,9.80
2019-05-11T20:12:43.578Z,9.80
2019-05-11T20:15:11.410Z,9.70
2019-05-11T20:17:39.270Z,9.60
2019-05-11T20:20:08.909Z,9.60
2019-05-11T20:22:38.849Z,9.50
2019-05-11T20:25:05.876Z,9.50
2019-05-11T20:27:33.342Z,9.50
2019-05-11T20:30:01.955Z,9.40
2019-05-11T20:32:29.440Z,9.30
2019-05-11T20:34:57.869Z,9.30
2019-05-11T20:37:25.510Z,9.30
2019-05-11T20:39:52.850Z,9.20
2019-05-11T20:42:20.487Z,9.20
2019-05-11T20:44:48.979Z,9.10
2019-05-11T20:47:17.803Z,9.10
2019-05-11T20:49:48.165Z,9.10
2019-05-11T20:52:17.812Z,9.00
2019-05-11T20:54:47.201Z,9.00
2019-05-11T20:57:14.689Z,9.00
2019-05-11T20:59:45.594Z,8.90
2019-05-11T21:02:13.018Z,8.90
2019-05-11T21:04:40.516Z,8.90
2019-05-11T21:07:09.940Z,8.80
2019-05-11T21:09:37.986Z,8.80
2019-05-11T21:12:07.949Z,8.80
2019-05-11T21:14:38.416Z,8.70
2019-05-11T21:17:05.050Z,8.70
2019-05-11T21:19:32.674Z,8.60
2019-05-11T21:22:00.367Z,8.60
2019-05-11T21:24:28.279Z,8.50
2019-05-11T21:26:58.255Z,8.50
2019-05-11T21:29:27.764Z,8.50
2019-05-11T21:31:54.557Z,8.40
2019-05-11T21:34:22.161Z,8.40
2019-05-11T21:36:49.755Z,8.30
2019-05-11T21:39:17.239Z,8.30
2019-05-11T21:41:44.802Z,8.30
2019-05-11T21:44:12.202Z,8.30
2019-05-11T21:46:39.704Z,8.20
2019-05-11T21:49:08.613Z,8.20
2019-05-11T21:51:38.114Z,8.20
2019-05-11T21:54:05.451Z,8.10
2019-05-11T21:56:32.761Z,8.10
2019-05-11T21:59:00.022Z,8.10
2019-05-11T22:01:28.169Z,8.00
2019-05-11T22:03:55.872Z,8.00
2019-05-11T22:06:23.517Z,8.00
2019-05-11T22:08:51.034Z,8.00
2019-05-11T22:11:18.366Z,7.90
2019-05-11T22:13:47.953Z,7.90
2019-05-11T22:16:15.607Z,7.90
2019-05-11T22:18:43.627Z,7.80
2019-05-11T22:21:11.059Z,7.80
2019-05-11T22:23:39.058Z,7.80
2019-05-11T22:26:07.730Z,7.80
2019-05-11T22:28:35.610Z,7.80
2019-05-11T22:31:03.133Z,7.80
2019-05-11T22:33:30.564Z,7.70
2019-05-11T22:35:58.726Z,7.70
2019-05-11T22:38:30.024Z,7.70
2019-05-11T22:40:58.287Z,7.70
2019-05-11T22:43:25.896Z,7.60
2019-05-11T22:45:53.506Z,7.60
2019-05-11T22:48:21.138Z,7.60
2019-05-11T22:50:50.600Z,7.60
2019-05-11T22:53:18.793Z,7.50
2019-05-11T22:55:48.555Z,7.50
2019-05-11T22:58:17.892Z,7.50
2019-05-11T23:00:45.776Z,7.40
2019-05-11T23:03:13.122Z,7.40
2019-05-11T23:05:44.417Z,7.40
2019-05-11T23:08:11.823Z,7.40
2019-05-11T23:10:39.494Z,7.30
2019-05-11T23:13:08.235Z,7.30
2019-05-11T23:15:40.104Z,7.20
2019-05-11T23:18:05.867Z,7.20
2019-05-11T23:20:33.374Z,7.20
2019-05-11T23:23:01.720Z,7.20
2019-05-11T23:25:29.427Z,7.10
2019-05-11T23:27:58.754Z,7.10
2019-05-11T23:30:28.111Z,7.10
2019-05-11T23:32:55.541Z,7.00
2019-05-11T23:35:23.003Z,7.00
2019-05-11T23:37:50.434Z,7.00
2019-05-11T23:40:18.512Z,6.90
2019-05-11T23:42:48.647Z,6.90
2019-05-11T23:45:18.537Z,6.90
2019-05-11T23:47:48.306Z,6.80
2019-05-11T23:50:15.307Z,6.80
2019-05-11T23:52:45.559Z,6.80
2019-05-11T23:55:12.893Z,6.70
2019-05-11T23:57:40.344Z,6.70
